Janet — 9HSL8 — position and weather

sailwx.info

Track history (hours):
 
Tides and Currents Weather Stations Pressure Air Temp Water Temp Dewpoint Dewpoint Depression Visibility Wind Speed Wind Dir Waves Ship Positions

Janet

Last reported at 2016-Feb-13 05:33 UTC. Time now 2016-Feb-13 06:56 UTC.
Position N 51°21' E 002°26'.

Length 90 m; draft 6.3 m.

Type: Cargo ship. MMSI: 256371000.

Date/timePositionNaut miles runAvg speedWind from/ knotsBaromVisibWave heightAir tempDewpointWater temp
2016-Feb-13 05:33N 51°21' E 002°26'9 8.7
2016-Feb-13 04:33N 51°16' E 002°14'1111.2
2016-Feb-13 03:33N 51°10' E 001°59'1413.6
2016-Feb-13 02:33N 51°02' E 001°42'15110.0
2016-Feb-12 11:24N 49°59' W 001°54'1214.4
2016-Feb-12 10:34N 49°56' W 002°13'1414.2
2016-Feb-12 09:33N 49°53' W 002°34'1612.4
2016-Feb-12 08:16N 49°45' W 002°56'911.7
2016-Feb-12 07:28N 49°42' W 003°10'  
2016-Feb-08 03:31N 41°58' W 009°07'6 6.5
2016-Feb-08 02:31N 41°52' W 009°10'6 6.5
2016-Feb-08 01:31N 41°46' W 009°13'6 6.4
2016-Feb-08 00:31N 41°40' W 009°16'7 7.3
2016-Feb-07 23:31N 41°34' W 009°20'8 7.7
2016-Feb-07 22:28N 41°26' W 009°23'7 7.8
2016-Feb-07 21:33N 41°19' W 009°27'9 8.4
2016-Feb-07 20:31N 41°11' W 009°31'9 8.4
2016-Feb-07 19:25N 41°03' W 009°36'8 9.1
2016-Feb-07 18:31N 40°55' W 009°39'9 8.7
2016-Feb-07 17:28N 40°46' W 009°41'9 9.0
2016-Feb-07 16:28N 40°37' W 009°43'8 8.6
2016-Feb-07 15:31N 40°29' W 009°45'9 9.1
2016-Feb-07 14:31N 40°20' W 009°47'11 8.9
2016-Feb-07 13:19N 40°10' W 009°50'8 9.6
2016-Feb-07 12:31N 40°02' W 009°52'7 6.7
2016-Feb-07 11:31N 39°56' W 009°50'9 9.1
2016-Feb-07 10:31N 39°47' W 009°50'10 9.5
2016-Feb-07 09:31N 39°37' W 009°50'10 9.5
2016-Feb-07 08:31N 39°28' W 009°51'12 8.9
2016-Feb-07 07:10N 39°16' W 009°50'5 8.0
2016-Feb-07 06:33N 39°11' W 009°51'9 8.5
2016-Feb-07 05:33N 39°02' W 009°51'9 8.5
2016-Feb-07 04:33N 38°54' W 009°51'9 8.5
2016-Feb-07 03:33N 38°45' W 009°52'8 8.5
2016-Feb-07 02:33N 38°37' W 009°49'9 8.7
2016-Feb-07 01:32N 38°28' W 009°47'8 8.4
2016-Feb-07 00:32N 38°20' W 009°45'9 8.4
2016-Feb-06 23:31N 38°12' W 009°42'10 9.4
2016-Feb-06 22:28N 38°02' W 009°39'8 8.1
2016-Feb-06 21:33N 37°55' W 009°37'9 9.5
2016-Feb-06 20:33N 37°46' W 009°34'10 9.6
2016-Feb-06 19:31N 37°36' W 009°31'1110.7
2016-Feb-06 18:28N 37°25' W 009°28'1010.5
2016-Feb-06 17:33N 37°16' W 009°25'1110.5
2016-Feb-06 16:31N 37°05' W 009°22'1110.6
2016-Feb-06 15:31N 36°55' W 009°20'10 9.8
2016-Feb-06 14:28N 36°47' W 009°12'9 9.9
2016-Feb-06 13:31N 36°42' W 009°01'1110.6
2016-Feb-06 12:31N 36°39' W 008°49'1010.5
2016-Feb-06 11:31N 36°36' W 008°36'1110.1
2016-Feb-06 10:28N 36°33' W 008°24'1110.7
2016-Feb-06 09:28N 36°29' W 008°11'12810.5
2016-Feb-05 21:19N 35°58' W 005°37'7 9.6
2016-Feb-05 20:34N 35°59' W 005°28'9 8.6
2016-Feb-05 19:33N 35°55' W 005°19'1 1.2
2016-Feb-05 18:29N 35°54' W 005°19'0 0.1
2016-Feb-05 17:32N 35°54' W 005°19'0 0.1
2016-Feb-05 16:32N 35°54' W 005°19'0 0.0
2016-Feb-05 15:32N 35°54' W 005°19'1 0.9
2016-Feb-05 14:34N 35°55' W 005°19'1 1.4
2016-Feb-05 13:33N 35°55' W 005°17'  
Track history (hours):
 
Tides and Currents Weather Stations Pressure Air Temp Water Temp Dewpoint Dewpoint Depression Visibility Wind Speed Wind Dir Waves Ship Positions

Janet

Last reported at 2016-Feb-13 05:33 UTC. Time now 2016-Feb-13 06:56 UTC.
Position N 51°21' E 002°26'.

Length 90 m; draft 6.3 m.

Type: Cargo ship. MMSI: 256371000.

Date/timePositionNaut miles runAvg speedWind from/ knotsBaromVisibWave heightAir tempDewpointWater temp
2016-Feb-13 05:33N 51°21' E 002°26'9 8.7
2016-Feb-13 04:33N 51°16' E 002°14'1111.2
2016-Feb-13 03:33N 51°10' E 001°59'1413.6
2016-Feb-13 02:33N 51°02' E 001°42'15110.0
2016-Feb-12 11:24N 49°59' W 001°54'1214.4
2016-Feb-12 10:34N 49°56' W 002°13'1414.2
2016-Feb-12 09:33N 49°53' W 002°34'1612.4
2016-Feb-12 08:16N 49°45' W 002°56'911.7
2016-Feb-12 07:28N 49°42' W 003°10'  
2016-Feb-08 03:31N 41°58' W 009°07'6 6.5
2016-Feb-08 02:31N 41°52' W 009°10'6 6.5
2016-Feb-08 01:31N 41°46' W 009°13'6 6.4
2016-Feb-08 00:31N 41°40' W 009°16'7 7.3
2016-Feb-07 23:31N 41°34' W 009°20'8 7.7
2016-Feb-07 22:28N 41°26' W 009°23'7 7.8
2016-Feb-07 21:33N 41°19' W 009°27'9 8.4
2016-Feb-07 20:31N 41°11' W 009°31'9 8.4
2016-Feb-07 19:25N 41°03' W 009°36'8 9.1
2016-Feb-07 18:31N 40°55' W 009°39'9 8.7
2016-Feb-07 17:28N 40°46' W 009°41'9 9.0
2016-Feb-07 16:28N 40°37' W 009°43'8 8.6
2016-Feb-07 15:31N 40°29' W 009°45'9 9.1
2016-Feb-07 14:31N 40°20' W 009°47'11 8.9
2016-Feb-07 13:19N 40°10' W 009°50'8 9.6
2016-Feb-07 12:31N 40°02' W 009°52'7 6.7
2016-Feb-07 11:31N 39°56' W 009°50'9 9.1
2016-Feb-07 10:31N 39°47' W 009°50'10 9.5
2016-Feb-07 09:31N 39°37' W 009°50'10 9.5
2016-Feb-07 08:31N 39°28' W 009°51'12 8.9
2016-Feb-07 07:10N 39°16' W 009°50'5 8.0
2016-Feb-07 06:33N 39°11' W 009°51'9 8.5
2016-Feb-07 05:33N 39°02' W 009°51'9 8.5
2016-Feb-07 04:33N 38°54' W 009°51'9 8.5
2016-Feb-07 03:33N 38°45' W 009°52'8 8.5
2016-Feb-07 02:33N 38°37' W 009°49'9 8.7
2016-Feb-07 01:32N 38°28' W 009°47'8 8.4
2016-Feb-07 00:32N 38°20' W 009°45'9 8.4
2016-Feb-06 23:31N 38°12' W 009°42'10 9.4
2016-Feb-06 22:28N 38°02' W 009°39'8 8.1
2016-Feb-06 21:33N 37°55' W 009°37'9 9.5
2016-Feb-06 20:33N 37°46' W 009°34'10 9.6
2016-Feb-06 19:31N 37°36' W 009°31'1110.7
2016-Feb-06 18:28N 37°25' W 009°28'1010.5
2016-Feb-06 17:33N 37°16' W 009°25'1110.5
2016-Feb-06 16:31N 37°05' W 009°22'1110.6
2016-Feb-06 15:31N 36°55' W 009°20'10 9.8
2016-Feb-06 14:28N 36°47' W 009°12'9 9.9
2016-Feb-06 13:31N 36°42' W 009°01'1110.6
2016-Feb-06 12:31N 36°39' W 008°49'1010.5
2016-Feb-06 11:31N 36°36' W 008°36'1110.1
2016-Feb-06 10:28N 36°33' W 008°24'1110.7
2016-Feb-06 09:28N 36°29' W 008°11'12810.5
2016-Feb-05 21:19N 35°58' W 005°37'7 9.6
2016-Feb-05 20:34N 35°59' W 005°28'9 8.6
2016-Feb-05 19:33N 35°55' W 005°19'1 1.2
2016-Feb-05 18:29N 35°54' W 005°19'0 0.1
2016-Feb-05 17:32N 35°54' W 005°19'0 0.1
2016-Feb-05 16:32N 35°54' W 005°19'0 0.0
2016-Feb-05 15:32N 35°54' W 005°19'1 0.9
2016-Feb-05 14:34N 35°55' W 005°19'1 1.4
2016-Feb-05 13:33N 35°55' W 005°17'  

Dump ship's entire track history